• Join FlightAware (Why Join?)
  • Login
  • US Flag 
07:24PM EDT


 

Airport Tracker/Info


-or-


 

Live Flight TrackerFlight Track Log ✈ SWA1021 ✈ 10-Apr-2013 ✈ KOAK - KLAX

Flight Track Log - Related Links

Times and Time Zones

All times are in EDT time to prevent confusion due to time zone crossing. See the SWA1021 flight status page for this flight to view local times or setup timezone preferences in your user account.

Time Position Orientation Groundspeed Altitude Reporting Facility
EDT Latitude Longitude Course Direction KTS MPH feet Rate Location/Type
10:13AM 37.7167 -122.2500 310° West 155 178 1,000  Level Northern Cal TRACON
10:14AM 37.7500 -122.3000 310° West 202 232 2,800 2,220 Climbing Northern Cal TRACON
10:15AM 37.7500 -122.3833 270° West 234 269 5,500 2,820 Climbing Northern Cal TRACON
10:16AM 37.7000 -122.4500 227° Southwest 309 356 8,500 2,880 Climbing Northern Cal TRACON
10:18AM 37.5433 -122.5594 209° Southwest 369 425 15,000 2,760 Climbing Oakland Center
10:19AM 37.4581 -122.4436 133° Southeast 385 443 17,600 2,340 Climbing Oakland Center
10:20AM 37.3833 -122.3392 132° Southeast 402 463 19,800 2,340 Climbing Oakland Center
10:21AM 37.3069 -122.2317 132° Southeast 411 473 22,400 2,160 Climbing Oakland Center
10:22AM 37.2286 -122.1231 132° Southeast 421 484 24,300 1,860 Climbing Oakland Center
10:23AM 37.1486 -122.0097 132° Southeast 433 498 26,300 1,620 Climbing Oakland Center
10:24AM 37.0653 -121.8936 132° Southeast 445 512 27,700 1,500 Climbing Oakland Center
10:25AM 36.9800 -121.7756 132° Southeast 456 525 29,400 1,680 Climbing Oakland Center
10:26AM 36.8936 -121.6572 132° Southeast 463 533 31,200 1,860 Climbing Oakland Center
10:27AM 36.8044 -121.5342 132° Southeast 459 528 33,300 1,740 Climbing Oakland Center
10:28AM 36.7211 -121.4183 132° Southeast 453 521 34,800 1,320 Climbing Oakland Center
10:29AM 36.6386 -121.3039 132° Southeast 447 514 36,000 1,080 Climbing Oakland Center
10:30AM 36.5564 -121.1931 133° Southeast 440 506 37,000 480 Climbing Oakland Center
10:31AM 36.4753 -121.0814 132° Southeast 436 502 37,000  Level Oakland Center
10:32AM 36.3761 -120.9486 133° Southeast 437 503 37,000  Level Oakland Center
10:34AM 36.2139 -120.7292 132° Southeast 434 499 37,000  Level Oakland Center
10:35AM 36.1311 -120.6192 133° Southeast 435 501 37,000  Level Oakland Center
10:36AM 36.0489 -120.5081 132° Southeast 437 503 37,000  Level Oakland Center
10:37AM 35.9639 -120.3964 133° Southeast 443 510 37,000  Level Oakland Center
10:38AM 35.8789 -120.2833 133° Southeast 446 513 37,000  Level Oakland Center
10:39AM 35.7936 -120.1728 134° Southeast 443 510 37,000  Level Oakland Center
10:40AM 35.7089 -120.0594 133° Southeast 447 514 37,000  Level Oakland Center
10:41AM 35.6025 -119.9800 149° Southeast 459 528 37,000  Level Oakland Center
10:42AM 35.4767 -119.9419 166° South 461 531 37,000 -240 Level Oakland Center
10:43AM 35.3264 -119.8964 166° South 460 529 36,500 -720 Descending Los Angeles Center
10:44AM 35.2092 -119.8431 160° South 444 511 35,500 -900 Descending Los Angeles Center
10:45AM 35.1200 -119.7861 152° Southeast 446 513 34,700 -960 Descending Los Angeles Center
10:46AM 34.9889 -119.7017 152° Southeast 445 512 33,600 -1,020 Descending Los Angeles Center
10:48AM 34.8836 -119.6175 147° Southeast 450 518 32,500 -1,740 Descending Los Angeles Center
10:49AM 34.7872 -119.4786 130° Southeast 452 520 29,800 -2,880 Descending Los Angeles Center
10:50AM 34.6878 -119.3408 131° Southeast 452 520 26,700 -2,760 Descending Los Angeles Center
10:51AM 34.6081 -119.2311 131° Southeast 442 509 24,200 -2,400 Descending Los Angeles Center
10:52AM 34.5292 -119.1222 131° Southeast 433 498 21,800 -2,340 Descending Los Angeles Center
10:53AM 34.4506 -119.0131 131° Southeast 429 494 19,400 -2,400 Descending Los Angeles Center
10:54AM 34.3769 -118.9089 131° Southeast 409 471 17,000 -2,400 Descending Los Angeles Center
10:55AM 34.2761 -118.8531 155° Southeast 404 465 14,500 -2,460 Descending Los Angeles Center
10:56AM 34.1550 -118.8083 163° South 376 433 12,000 -2,040 Descending Los Angeles Center
10:57AM 34.0753 -118.7503 149° Southeast 349 402 10,400 -1,020 Descending Los Angeles Center
10:58AM 34.0567 -118.6675 105° East 302 348 10,000 -900 Descending Los Angeles Center
10:59AM 34.0306 -118.5514 105° East 290 334 8,600 -1,380 Descending Los Angeles Center
11:00AM 34.0119 -118.4633 104° East 273 314 7,200 -1,380 Descending Los Angeles Center
11:01AM 34.0231 -118.3942 79° East 244 281 5,800 -1,500 Descending Los Angeles Center
11:02AM 34.0394 -118.3219 75° East 226 260 4,200 -1,680 Descending Los Angeles Center
11:03AM 34.0111 -118.2833 132° Southeast 206 237 2,400 -1,380 Descending Los Angeles Center
11:04AM 33.9658 -118.3189 213° Southwest 178 205 1,400 -780 Descending Los Angeles Center
11:05AM 33.9567 -118.3597 255° West 145 167 800 -660 Descending Los Angeles Center
11:06AM 33.9528 -118.4028 264° West 134 154 100 -720 Descending Los Angeles Center
11:08AM 33.9425 -118.4081 228° Southwest  Level Estimated
11:15AM 33.9425 -118.4081 228° Southwest  Level Estimated